createdAt,value
2023-02-23T00:03:07.319Z,98499.59
2023-02-23T00:08:12.259Z,98497.44
2023-02-23T00:13:17.075Z,98496.38
2023-02-23T00:18:24.530Z,98498.03
2023-02-23T00:23:30.097Z,98491.38
2023-02-23T00:28:35.144Z,98494.09
2023-02-23T00:33:43.849Z,98488.19
2023-02-23T00:38:48.947Z,98496.19
2023-02-23T00:43:55.175Z,98489.06
2023-02-23T00:49:05.221Z,98489.31
2023-02-23T00:54:10.965Z,98488.19
2023-02-23T00:59:16.311Z,98494.25
2023-02-23T01:04:23.786Z,98498.88
2023-02-23T01:09:30.785Z,98494.44
2023-02-23T01:14:36.105Z,98501.19
2023-02-23T01:19:47.824Z,98492.69
2023-02-23T01:24:52.870Z,98493.47
2023-02-23T01:29:57.757Z,98485.09
2023-02-23T01:35:05.692Z,98477.63
2023-02-23T01:40:15.874Z,98466.09
2023-02-23T01:45:27.243Z,98469.69
2023-02-23T01:50:41.907Z,98475.69
2023-02-23T01:55:49.919Z,98462.84
2023-02-23T02:00:57.932Z,98458.81
2023-02-23T02:06:09.916Z,98443.63
2023-02-23T02:11:26.269Z,98441.19
2023-02-23T02:17:03.705Z,98439.56
2023-02-23T02:22:26.626Z,98437.94
2023-02-23T02:27:50.449Z,98435.66
2023-02-23T02:33:38.004Z,98429.31
2023-02-23T02:38:56.660Z,98426.91
2023-02-23T02:44:10.240Z,98426.50
2023-02-23T02:49:22.973Z,98427.06
2023-02-23T02:54:37.034Z,98416.28
2023-02-23T03:00:02.875Z,98429.41
2023-02-23T03:05:29.263Z,98423.44
2023-02-23T03:10:57.143Z,98412.06
2023-02-23T03:16:23.955Z,98416.38
2023-02-23T03:21:47.141Z,98421.91
2023-02-23T03:27:11.182Z,98406.56
2023-02-23T03:32:34.133Z,98410.59
2023-02-23T03:37:57.697Z,98403.22
2023-02-23T03:43:21.050Z,98397.38
2023-02-23T03:48:40.399Z,98396.81
2023-02-23T03:54:05.749Z,98402.03
2023-02-23T03:59:27.566Z,98403.66
2023-02-23T04:04:46.787Z,98413.69
2023-02-23T04:10:04.693Z,98399.72
2023-02-23T04:15:15.255Z,98415.66
2023-02-23T04:20:20.190Z,98404.03
2023-02-23T04:25:26.925Z,98418.25
2023-02-23T04:30:34.714Z,98422.69
2023-02-23T04:35:40.242Z,98417.63
2023-02-23T04:40:45.413Z,98418.94
2023-02-23T04:45:53.111Z,98420.72
2023-02-23T04:50:58.170Z,98420.06
2023-02-23T04:56:03.007Z,98416.53
2023-02-23T05:01:12.438Z,98419.47
2023-02-23T05:06:17.372Z,98425.81
2023-02-23T05:11:22.307Z,98426.84
2023-02-23T05:16:29.819Z,98422.13
2023-02-23T05:21:34.841Z,98419.78
2023-02-23T05:26:40.051Z,98419.53
2023-02-23T05:31:48.638Z,98417.69
2023-02-23T05:36:54.296Z,98411.09
2023-02-23T05:41:59.214Z,98413.81
2023-02-23T05:47:06.982Z,98414.59
2023-02-23T05:52:12.004Z,98423.28
2023-02-23T05:57:17.105Z,98417.44
2023-02-23T06:02:24.606Z,98423.94
2023-02-23T06:07:29.655Z,98429.81
2023-02-23T06:12:34.595Z,98426.66
2023-02-23T06:17:42.094Z,98430.41
2023-02-23T06:22:48.251Z,98435.69
2023-02-23T06:27:53.744Z,98444.75
2023-02-23T06:33:01.322Z,98447.91
2023-02-23T06:38:07.494Z,98448.25
2023-02-23T06:43:12.675Z,98449.28
2023-02-23T06:48:20.397Z,98449.28
2023-02-23T06:53:28.972Z,98462.38
2023-02-23T06:58:34.026Z,98460.94
2023-02-23T07:03:44.600Z,98460.28
2023-02-23T07:08:51.313Z,98468.50
2023-02-23T07:13:56.368Z,98466.25
2023-02-23T07:19:03.922Z,98466.91
2023-02-23T07:24:09.402Z,98466.53
2023-02-23T07:29:16.313Z,98472.16
2023-02-23T07:34:23.888Z,98469.22
2023-02-23T07:39:29.049Z,98466.88
2023-02-23T07:44:34.400Z,98470.66
2023-02-23T07:49:42.602Z,98456.94
2023-02-23T07:54:47.792Z,98464.38
2023-02-23T07:59:55.861Z,98465.56
2023-02-23T08:05:03.413Z,98468.13
2023-02-23T08:10:10.788Z,98471.47
2023-02-23T08:15:15.700Z,98474.28
2023-02-23T08:20:23.374Z,98472.38
2023-02-23T08:25:29.350Z,98466.16
2023-02-23T08:30:34.448Z,98474.50
2023-02-23T08:35:42.147Z,98481.50
2023-02-23T08:40:47.036Z,98474.78
2023-02-23T08:45:52.006Z,98470.75
2023-02-23T08:51:03.746Z,98469.13
2023-02-23T08:56:10.884Z,98470.63
2023-02-23T09:01:22.186Z,98462.44
2023-02-23T09:06:35.869Z,98465.53
2023-02-23T09:11:41.630Z,98474.22
2023-02-23T09:16:47.414Z,98475.72
2023-02-23T09:21:56.602Z,98466.81
2023-02-23T09:27:01.547Z,98473.84
2023-02-23T09:32:08.571Z,98482.25
2023-02-23T09:37:19.467Z,98480.91
2023-02-23T09:42:41.185Z,98480.41
2023-02-23T09:48:04.637Z,98482.09
2023-02-23T09:53:43.129Z,98486.66
2023-02-23T09:58:48.485Z,98474.13
2023-02-23T10:03:58.328Z,98481.44
2023-02-23T10:09:19.627Z,98479.94
2023-02-23T10:14:43.008Z,98478.34
2023-02-23T10:19:56.736Z,98476.41
2023-02-23T10:25:12.494Z,98483.63
2023-02-23T10:30:22.390Z,98470.72
2023-02-23T10:35:29.832Z,98456.81
2023-02-23T10:40:39.904Z,98464.56
2023-02-23T10:45:49.642Z,98457.78
2023-02-23T10:51:00.361Z,98466.50
2023-02-23T10:56:13.742Z,98462.72
2023-02-23T11:01:22.976Z,98454.81
2023-02-23T11:06:34.149Z,98446.00
2023-02-23T11:11:42.014Z,98444.84
2023-02-23T11:16:49.665Z,98437.66
2023-02-23T11:21:56.189Z,98434.00
2023-02-23T11:27:06.884Z,98427.47
2023-02-23T11:32:16.526Z,98412.19
2023-02-23T11:37:30.051Z,98412.34
2023-02-23T11:42:37.774Z,98416.06
2023-02-23T11:47:44.543Z,98410.16
2023-02-23T11:52:49.798Z,98394.38
2023-02-23T11:58:11.891Z,98392.00
2023-02-23T12:03:26.112Z,98386.25
2023-02-23T12:08:48.961Z,98387.13
2023-02-23T12:14:06.022Z,98384.22
2023-02-23T12:19:26.308Z,98385.50
2023-02-23T12:24:47.688Z,98380.19
2023-02-23T12:30:09.156Z,98368.03
2023-02-23T12:35:20.413Z,98366.13
2023-02-23T12:40:30.279Z,98360.13
2023-02-23T12:45:45.131Z,98364.56
2023-02-23T12:50:56.377Z,98362.53
2023-02-23T12:56:15.653Z,98353.41
2023-02-23T13:01:27.222Z,98347.72
2023-02-23T13:06:42.887Z,98342.69
2023-02-23T13:12:24.497Z,98347.47
2023-02-23T13:17:40.122Z,98346.69
2023-02-23T13:22:52.368Z,98338.81
2023-02-23T13:28:02.910Z,98323.16
2023-02-23T13:33:22.132Z,98336.84
2023-02-23T13:38:37.193Z,98344.03
2023-02-23T13:43:52.654Z,98340.97
2023-02-23T13:49:05.594Z,98341.28
2023-02-23T13:54:27.858Z,98341.69
2023-02-23T13:59:36.815Z,98340.44
2023-02-23T14:04:46.345Z,98344.69
2023-02-23T14:09:57.497Z,98332.41
2023-02-23T14:15:43.043Z,98321.34
2023-02-23T14:21:01.314Z,98319.16
2023-02-23T14:26:40.168Z,98317.50
2023-02-23T14:31:58.239Z,98324.00
2023-02-23T14:37:32.592Z,98329.00
2023-02-23T14:42:43.486Z,98320.59
2023-02-23T14:47:53.946Z,98324.47
2023-02-23T14:53:04.982Z,98319.56
2023-02-23T14:58:25.619Z,98318.00
2023-02-23T15:03:30.724Z,98316.44
2023-02-23T15:08:43.317Z,98315.44
2023-02-23T15:13:52.774Z,98313.31
2023-02-23T15:19:02.442Z,98314.81
2023-02-23T15:24:16.656Z,98324.81
2023-02-23T15:29:23.942Z,98325.78
2023-02-23T15:34:32.345Z,98331.28
2023-02-23T15:39:46.516Z,98328.78
2023-02-23T15:45:02.667Z,98321.41
2023-02-23T15:50:20.126Z,98322.91
2023-02-23T15:55:39.561Z,98326.13
2023-02-23T16:00:49.398Z,98327.06
2023-02-23T16:06:01.740Z,98339.50
2023-02-23T16:11:14.044Z,98334.00
2023-02-23T16:16:25.614Z,98331.13
2023-02-23T16:21:34.863Z,98331.13
2023-02-23T16:26:50.487Z,98332.16
2023-02-23T16:32:00.422Z,98335.22
2023-02-23T16:37:07.481Z,98324.41
2023-02-23T16:42:25.554Z,98326.38
2023-02-23T16:47:39.088Z,98321.78
2023-02-23T16:52:46.121Z,98336.03
2023-02-23T16:57:55.001Z,98330.41
2023-02-23T17:03:05.677Z,98330.75
2023-02-23T17:08:10.643Z,98334.81
2023-02-23T17:13:22.066Z,98338.09
2023-02-23T17:18:28.893Z,98334.31
2023-02-23T17:23:48.251Z,98333.06
2023-02-23T17:28:56.736Z,98336.84
2023-02-23T17:34:02.004Z,98342.81
2023-02-23T17:39:09.584Z,98333.56
2023-02-23T17:44:17.156Z,98341.56
2023-02-23T17:49:22.042Z,98339.03
2023-02-23T17:54:26.950Z,98336.53
2023-02-23T17:59:34.445Z,98331.81
2023-02-23T18:04:39.271Z,98336.38
2023-02-23T18:09:44.572Z,98326.34
2023-02-23T18:14:52.229Z,98329.47
2023-02-23T18:19:57.210Z,98324.78
2023-02-23T18:25:05.752Z,98329.78
2023-02-23T18:30:17.261Z,98326.47
2023-02-23T18:35:22.223Z,98321.94
2023-02-23T18:40:27.468Z,98313.63
2023-02-23T18:45:36.821Z,98316.63
2023-02-23T18:50:41.800Z,98322.25
2023-02-23T18:55:47.355Z,98312.81
2023-02-23T19:00:55.223Z,98310.47
2023-02-23T19:06:01.061Z,98313.00
2023-02-23T19:11:06.167Z,98310.78
2023-02-23T19:16:14.838Z,98313.47
2023-02-23T19:21:24.505Z,98313.31
2023-02-23T19:26:36.370Z,98302.06
2023-02-23T19:31:47.811Z,98309.13
2023-02-23T19:36:52.995Z,98299.72
2023-02-23T19:41:58.246Z,98305.84
2023-02-23T19:47:06.678Z,98294.22
2023-02-23T19:52:14.467Z,98303.00
2023-02-23T19:57:21.121Z,98282.66
2023-02-23T20:02:29.261Z,98295.31
2023-02-23T20:07:34.411Z,98290.16
2023-02-23T20:12:40.011Z,98283.41
2023-02-23T20:17:47.711Z,98287.81
2023-02-23T20:22:55.821Z,98281.88
2023-02-23T20:28:01.519Z,98280.78
2023-02-23T20:33:10.897Z,98284.06
2023-02-23T20:38:16.396Z,98273.38
2023-02-23T20:43:22.573Z,98264.78
2023-02-23T20:48:32.823Z,98268.03
2023-02-23T20:53:38.459Z,98265.25
2023-02-23T20:58:43.937Z,98264.00
2023-02-23T21:03:52.510Z,98260.81
2023-02-23T21:09:03.975Z,98252.81
2023-02-23T21:14:09.043Z,98252.06
2023-02-23T21:19:17.891Z,98253.13
2023-02-23T21:24:23.043Z,98245.25
2023-02-23T21:29:28.144Z,98234.00
2023-02-23T21:34:36.043Z,98240.88
2023-02-23T21:39:40.991Z,98234.31
2023-02-23T21:44:46.634Z,98229.53
2023-02-23T21:49:54.449Z,98221.97
2023-02-23T21:55:01.110Z,98229.84
2023-02-23T22:00:09.665Z,98231.50
2023-02-23T22:05:22.279Z,98238.28
2023-02-23T22:10:28.045Z,98243.63
2023-02-23T22:15:34.044Z,98237.69
2023-02-23T22:20:44.377Z,98237.03
2023-02-23T22:25:49.478Z,98239.78
2023-02-23T22:30:55.444Z,98225.13
2023-02-23T22:36:04.451Z,98226.94
2023-02-23T22:41:10.356Z,98224.38
2023-02-23T22:46:17.081Z,98220.56
2023-02-23T22:51:24.686Z,98217.00
2023-02-23T22:56:29.754Z,98206.94
2023-02-23T23:01:35.973Z,98197.75
2023-02-23T23:06:46.364Z,98203.97
2023-02-23T23:11:51.859Z,98193.06
2023-02-23T23:16:57.079Z,98198.22
2023-02-23T23:22:04.976Z,98197.50
2023-02-23T23:27:11.904Z,98193.31
2023-02-23T23:32:18.768Z,98192.06
2023-02-23T23:37:29.187Z,98187.84
2023-02-23T23:42:34.945Z,98172.75
2023-02-23T23:47:39.936Z,98175.59
2023-02-23T23:52:50.553Z,98175.91
2023-02-23T23:57:55.568Z,98180.75
